• Join FlightAware (Why Join?)
  • Login
  • US Flag 
03:27AM EDT


 

Airport Tracker/Info


-or-


 

Live Flight TrackerFlight Track Log ✈ SWA1319 ✈ 22-Apr-2013 ✈ KBHM - KDAL

Flight Track Log - Related Links

Times and Time Zones

All times are in EDT time to prevent confusion due to time zone crossing. See the SWA1319 flight status page for this flight to view local times or setup timezone preferences in your user account.

Time Position Orientation Groundspeed Altitude Reporting Facility
EDT Latitude Longitude Course Direction KTS MPH feet Rate Location/Type
01:32PM 33.6333 -86.7283 13° North 187 215 4,600  Level Atlanta Center
01:33PM 33.6481 -86.8161 281° West 175 201 7,500 3,120 Climbing Atlanta Center
01:34PM 33.6481 -86.9086 270° West 217 250 10,900 2,640 Climbing Atlanta Center
01:35PM 33.6372 -87.0131 263° West 270 311 12,800 2,220 Climbing Atlanta Center
01:36PM 33.6281 -87.1300 265° West 317 365 15,400 2,400 Climbing Atlanta Center
01:37PM 33.6147 -87.2467 262° West 345 397 17,700 2,160 Climbing Atlanta Center
01:38PM 33.5942 -87.4669 264° West 376 433 21,200 1,800 Climbing Memphis Center
01:39PM 33.5767 -87.6094 262° West 403 464 23,000 1,740 Climbing Memphis Center
01:40PM 33.5628 -87.7422 263° West 403 464 25,200 1,800 Climbing Memphis Center
01:41PM 33.5508 -87.8747 264° West 403 464 26,600 1,680 Climbing Memphis Center
01:42PM 33.5367 -88.0047 263° West 408 470 28,600 1,920 Climbing Memphis Center
01:43PM 33.5244 -88.1294 263° West 397 457 30,500 1,740 Climbing Memphis Center
01:44PM 33.5122 -88.2694 264° West 388 447 32,100 1,620 Climbing Memphis Center
01:45PM 33.5017 -88.3892 264° West 388 447 33,800 1,500 Climbing Memphis Center
01:46PM 33.4889 -88.5064 263° West 376 433 35,100 900 Climbing Memphis Center
01:47PM 33.4864 -88.6261 269° West 365 420 35,600 420 Climbing Memphis Center
01:48PM 33.4881 -88.7456 271° West 365 420 36,000 120 Climbing Memphis Center
01:50PM 33.4696 -88.8644 259° West  Level FlightAware Approximate
01:50PM 33.4828 -88.9897 259° West 370 426 36,000  Level Memphis Center
01:51PM 33.4819 -89.1119 270° West 365 420 36,000  Level Memphis Center
01:52PM 33.4789 -89.2289 268° West 365 420 36,000  Level Memphis Center
01:53PM 33.4778 -89.3486 269° West 356 410 36,000  Level Memphis Center
01:54PM 33.4786 -89.4681 271° West 362 417 36,000  Level Memphis Center
01:55PM 33.4753 -89.5903 268° West 362 417 36,000  Level Memphis Center
01:56PM 33.4739 -89.7122 269° West 367 422 36,000  Level Memphis Center
01:57PM 33.4722 -89.8217 269° West 367 422 36,000  Level Memphis Center
01:58PM 33.4708 -89.9439 269° West 367 422 36,000  Level Memphis Center
01:59PM 33.4669 -90.0633 268° West 367 422 36,000  Level Memphis Center
02:00PM 33.4650 -90.1853 269° West 367 422 36,000  Level Memphis Center
02:01PM 33.4506 -90.3000 261° West 367 422 36,000  Level Memphis Center
02:02PM 33.3983 -90.4069 240° Southwest 362 417 36,000  Level Memphis Center
02:03PM 33.3439 -90.5089 237° Southwest 362 417 36,000  Level Memphis Center
02:04PM 33.2853 -90.6131 236° Southwest 376 433 36,000  Level Memphis Center
02:05PM 33.2308 -90.7175 238° Southwest 376 433 36,000  Level Memphis Center
02:06PM 33.1742 -90.8214 237° Southwest 376 433 36,000  Level Memphis Center
02:07PM 33.1131 -90.9375 238° Southwest 376 433 36,000  Level Memphis Center
02:08PM 33.0564 -91.0439 238° Southwest 381 438 36,000  Level Memphis Center
02:09PM 32.9992 -91.1475 237° Southwest 381 438 36,000  Level Memphis Center
02:10PM 32.9442 -91.2558 239° Southwest 381 438 36,000  Level Memphis Center
02:12PM 32.8419 -91.4425 237° Southwest 391 450 36,000  Level Fort Worth Center
02:13PM 32.7864 -91.5500 238° Southwest 396 456 36,000  Level Fort Worth Center
02:14PM 32.7289 -91.6575 238° Southwest 396 456 36,000  Level Fort Worth Center
02:15PM 32.7069 -91.7725 257° West 367 422 36,000  Level Fort Worth Center
02:16PM 32.7031 -91.8714 267° West 358 412 36,000  Level Fort Worth Center
02:17PM 32.6894 -91.9908 262° West 358 412 36,000  Level Fort Worth Center
02:18PM 32.6778 -92.1097 263° West 358 412 36,000  Level Fort Worth Center
02:19PM 32.6678 -92.2214 264° West 358 412 36,000  Level Fort Worth Center
02:20PM 32.6586 -92.3578 265° West 369 425 36,000  Level Fort Worth Center
02:21PM 32.6481 -92.4569 263° West 369 425 36,000  Level Fort Worth Center
02:22PM 32.6381 -92.5733 264° West 361 415 36,000  Level Fort Worth Center
02:23PM 32.6258 -92.6900 263° West 356 410 36,000  Level Fort Worth Center
02:24PM 32.6175 -92.8064 265° West 356 410 36,000  Level Fort Worth Center
02:25PM 32.6031 -92.9278 262° West 356 410 36,000 -360 Level Fort Worth Center
02:26PM 32.5928 -93.0467 264° West 362 417 35,300 -900 Descending Fort Worth Center
02:27PM 32.5803 -93.1681 263° West 373 429 34,300 -960 Descending Fort Worth Center
02:28PM 32.5694 -93.2844 264° West 367 422 33,400 -960 Descending Fort Worth Center
02:29PM 32.5567 -93.4058 263° West 372 428 32,400 -720 Descending Fort Worth Center
02:30PM 32.5439 -93.5297 263° West 372 428 32,000 -240 Descending Fort Worth Center
02:31PM 32.5308 -93.6483 263° West 372 428 32,000  Level Fort Worth Center
02:32PM 32.5200 -93.7769 264° West 372 428 32,000  Level Fort Worth Center
02:33PM 32.5050 -93.9081 262° West 391 450 32,000  Level Fort Worth Center
02:34PM 32.4917 -94.0317 263° West 391 450 32,000  Level Fort Worth Center
02:35PM 32.4781 -94.1578 263° West 391 450 32,000  Level Fort Worth Center
02:36PM 32.4647 -94.2839 263° West 391 450 32,000  Level Fort Worth Center
02:37PM 32.4492 -94.4197 262° West 386 444 32,000  Level Fort Worth Center
02:38PM 32.4353 -94.5408 262° West 386 444 32,000  Level Fort Worth Center
02:39PM 32.4236 -94.6692 264° West 391 450 32,000  Level Fort Worth Center
02:40PM 32.4075 -94.7978 262° West 391 450 32,000  Level Fort Worth Center
02:41PM 32.3892 -94.9189 260° West 391 450 32,000  Level Fort Worth Center
02:42PM 32.3747 -95.0447 262° West 391 450 32,000  Level Fort Worth Center
02:43PM 32.3542 -95.1731 259° West 391 450 32,000 -900 Level Fort Worth Center
02:44PM 32.3375 -95.2864 260° West 391 450 30,200 -1,920 Descending Fort Worth Center
02:45PM 32.3186 -95.4122 260° West 391 450 28,200 -2,160 Descending Fort Worth Center
02:46PM 32.2975 -95.5356 259° West 391 450 25,900 -2,460 Descending Fort Worth Center
02:47PM 32.2783 -95.6564 259° West 391 450 23,300 -2,640 Descending Fort Worth Center
02:48PM 32.2592 -95.7772 259° West 391 450 20,700 -2,520 Descending Fort Worth Center
02:49PM 32.3042 -95.8844 296° West 352 405 18,300 -2,400 Descending Fort Worth Center
02:50PM 32.3575 -95.9772 304° West 352 405 16,000 -2,520 Descending Fort Worth Center
02:51PM 32.4192 -96.0844 304° West 352 405 13,300 -2,400 Descending Fort Worth Center
02:52PM 32.4661 -96.1675 304° West 344 396 11,200 -1,620 Descending Fort Worth Center
02:53PM 32.5211 -96.2603 305° West 323 372 10,100 -1,140 Descending Fort Worth Center
02:54PM 32.5594 -96.3264 305° West 286 329 9,000 -600 Descending Fort Worth Center
02:55PM 32.6061 -96.4072 304° West 272 313 8,900 -1,080 Descending Fort Worth Center
02:56PM 32.6461 -96.4783 304° West 278 320 6,900 -1,800 Descending Fort Worth Center
02:57PM 32.7031 -96.5542 312° West 284 327 5,300 -960 Descending Fort Worth Center
02:58PM 32.7619 -96.6056 324° Northwest 279 321 5,000 -240 Descending Fort Worth Center
02:59PM 32.8311 -96.6667 323° Northwest 286 329 4,900 -720 Descending Fort Worth Center
03:00PM 32.8667 -96.7167 310° West 285 328 3,800 -1,140 Descending Dallas / Fort Worth TRACON
03:01PM 32.9167 -96.8000 306° West 270 311 2,900 -420 Descending Dallas / Fort Worth TRACON
03:02PM 32.9333 -96.8667 287° West 224 258 3,000 -300 Climbing Dallas / Fort Worth TRACON
03:03PM 32.9000 -96.9000 220° Southwest 148 170 2,300 -960 Descending Dallas / Fort Worth TRACON
03:04PM 32.8833 -96.8833 140° Southeast 128 147 1,100 -480 Descending Dallas / Fort Worth TRACON
03:06PM 32.8700 -96.9186 246° West 59 68 900 -120 Descending Fort Worth Center
03:08PM 32.8471 -96.8518 128° Southeast  Level Estimated